sensor_id;sensor_type;location;lat;lon;timestamp;P1;durP1;ratioP1;P2;durP2;ratioP2
21114;SDS011;10715;48.546;9.896;2023-12-07T00:01:02;9.30;;;7.10;;
21114;SDS011;10715;48.546;9.896;2023-12-07T00:03:28;13.70;;;8.30;;
21114;SDS011;10715;48.546;9.896;2023-12-07T00:05:54;15.47;;;7.87;;
21114;SDS011;10715;48.546;9.896;2023-12-07T00:08:19;11.90;;;7.80;;
21114;SDS011;10715;48.546;9.896;2023-12-07T00:10:45;13.60;;;8.90;;
21114;SDS011;10715;48.546;9.896;2023-12-07T00:13:11;15.67;;;7.97;;
21114;SDS011;10715;48.546;9.896;2023-12-07T00:15:36;14.13;;;7.90;;
21114;SDS011;10715;48.546;9.896;2023-12-07T00:18:02;11.03;;;6.53;;
21114;SDS011;10715;48.546;9.896;2023-12-07T00:20:28;13.50;;;7.67;;
21114;SDS011;10715;48.546;9.896;2023-12-07T00:22:54;8.17;;;6.20;;
21114;SDS011;10715;48.546;9.896;2023-12-07T00:25:20;8.33;;;6.60;;
21114;SDS011;10715;48.546;9.896;2023-12-07T00:27:47;10.50;;;6.43;;
21114;SDS011;10715;48.546;9.896;2023-12-07T00:30:13;12.23;;;5.77;;
21114;SDS011;10715;48.546;9.896;2023-12-07T00:32:40;8.40;;;5.20;;
21114;SDS011;10715;48.546;9.896;2023-12-07T00:35:08;10.57;;;7.70;;
21114;SDS011;10715;48.546;9.896;2023-12-07T00:37:37;17.97;;;9.40;;
21114;SDS011;10715;48.546;9.896;2023-12-07T00:40:03;16.50;;;9.00;;
21114;SDS011;10715;48.546;9.896;2023-12-07T00:42:30;18.70;;;10.67;;
21114;SDS011;10715;48.546;9.896;2023-12-07T00:44:56;18.80;;;10.87;;
21114;SDS011;10715;48.546;9.896;2023-12-07T00:47:22;18.53;;;10.83;;
21114;SDS011;10715;48.546;9.896;2023-12-07T00:49:47;16.53;;;9.83;;
21114;SDS011;10715;48.546;9.896;2023-12-07T00:52:13;20.30;;;11.40;;
21114;SDS011;10715;48.546;9.896;2023-12-07T00:54:39;13.67;;;9.13;;
21114;SDS011;10715;48.546;9.896;2023-12-07T00:57:08;9.63;;;8.03;;
21114;SDS011;10715;48.546;9.896;2023-12-07T00:59:33;10.70;;;8.37;;
21114;SDS011;10715;48.546;9.896;2023-12-07T01:02:00;9.70;;;6.17;;
21114;SDS011;10715;48.546;9.896;2023-12-07T01:04:27;13.47;;;6.97;;
21114;SDS011;10715;48.546;9.896;2023-12-07T01:06:53;8.80;;;5.80;;
21114;SDS011;10715;48.546;9.896;2023-12-07T01:09:19;7.80;;;7.00;;
21114;SDS011;10715;48.546;9.896;2023-12-07T01:11:45;11.33;;;8.90;;
21114;SDS011;10715;48.546;9.896;2023-12-07T01:14:10;19.23;;;9.40;;
21114;SDS011;10715;48.546;9.896;2023-12-07T01:16:36;11.20;;;8.10;;
21114;SDS011;10715;48.546;9.896;2023-12-07T01:19:02;10.43;;;9.13;;
21114;SDS011;10715;48.546;9.896;2023-12-07T01:21:28;15.70;;;9.20;;
21114;SDS011;10715;48.546;9.896;2023-12-07T01:23:54;12.00;;;8.17;;
21114;SDS011;10715;48.546;9.896;2023-12-07T01:26:19;16.20;;;9.23;;
21114;SDS011;10715;48.546;9.896;2023-12-07T01:28:46;11.33;;;7.40;;
21114;SDS011;10715;48.546;9.896;2023-12-07T01:31:11;11.70;;;7.23;;
21114;SDS011;10715;48.546;9.896;2023-12-07T01:33:37;10.97;;;8.20;;
21114;SDS011;10715;48.546;9.896;2023-12-07T01:36:03;12.90;;;7.73;;
21114;SDS011;10715;48.546;9.896;2023-12-07T01:38:29;12.20;;;7.10;;
21114;SDS011;10715;48.546;9.896;2023-12-07T01:40:54;9.60;;;6.07;;
21114;SDS011;10715;48.546;9.896;2023-12-07T01:43:21;14.83;;;7.30;;
21114;SDS011;10715;48.546;9.896;2023-12-07T01:45:48;9.77;;;6.33;;
21114;SDS011;10715;48.546;9.896;2023-12-07T01:48:18;6.50;;;5.40;;
21114;SDS011;10715;48.546;9.896;2023-12-07T01:50:45;10.63;;;7.20;;
21114;SDS011;10715;48.546;9.896;2023-12-07T01:53:12;7.50;;;5.40;;
21114;SDS011;10715;48.546;9.896;2023-12-07T01:55:38;12.13;;;7.50;;
21114;SDS011;10715;48.546;9.896;2023-12-07T01:58:05;8.00;;;5.27;;
21114;SDS011;10715;48.546;9.896;2023-12-07T02:00:32;6.67;;;6.07;;
21114;SDS011;10715;48.546;9.896;2023-12-07T02:02:59;13.60;;;7.40;;
21114;SDS011;10715;48.546;9.896;2023-12-07T02:05:29;10.33;;;7.97;;
21114;SDS011;10715;48.546;9.896;2023-12-07T02:07:57;10.83;;;7.33;;
21114;SDS011;10715;48.546;9.896;2023-12-07T02:10:23;14.60;;;8.17;;
21114;SDS011;10715;48.546;9.896;2023-12-07T02:12:50;7.00;;;6.30;;
21114;SDS011;10715;48.546;9.896;2023-12-07T02:15:18;10.73;;;6.60;;
21114;SDS011;10715;48.546;9.896;2023-12-07T02:20:26;12.50;;;6.80;;
21114;SDS011;10715;48.546;9.896;2023-12-07T02:23:01;12.20;;;6.10;;
21114;SDS011;10715;48.546;9.896;2023-12-07T02:25:35;7.13;;;6.40;;
21114;SDS011;10715;48.546;9.896;2023-12-07T02:28:03;13.63;;;6.03;;
21114;SDS011;10715;48.546;9.896;2023-12-07T02:30:29;9.70;;;6.30;;
21114;SDS011;10715;48.546;9.896;2023-12-07T02:32:54;11.03;;;7.53;;
21114;SDS011;10715;48.546;9.896;2023-12-07T02:35:20;14.00;;;7.63;;
21114;SDS011;10715;48.546;9.896;2023-12-07T02:37:48;11.33;;;6.93;;
21114;SDS011;10715;48.546;9.896;2023-12-07T02:40:24;10.93;;;6.60;;
21114;SDS011;10715;48.546;9.896;2023-12-07T02:42:54;6.97;;;6.33;;
21114;SDS011;10715;48.546;9.896;2023-12-07T02:45:21;12.03;;;8.53;;
21114;SDS011;10715;48.546;9.896;2023-12-07T02:47:47;10.23;;;6.97;;
21114;SDS011;10715;48.546;9.896;2023-12-07T02:50:13;12.70;;;6.97;;
21114;SDS011;10715;48.546;9.896;2023-12-07T02:52:40;7.40;;;5.10;;
21114;SDS011;10715;48.546;9.896;2023-12-07T02:55:06;9.40;;;6.23;;
21114;SDS011;10715;48.546;9.896;2023-12-07T02:57:32;10.40;;;7.10;;
21114;SDS011;10715;48.546;9.896;2023-12-07T03:00:00;7.40;;;4.37;;
21114;SDS011;10715;48.546;9.896;2023-12-07T03:02:35;8.27;;;5.73;;
21114;SDS011;10715;48.546;9.896;2023-12-07T03:05:02;8.50;;;5.37;;
21114;SDS011;10715;48.546;9.896;2023-12-07T03:07:29;10.10;;;6.03;;
21114;SDS011;10715;48.546;9.896;2023-12-07T03:09:54;6.27;;;5.67;;
21114;SDS011;10715;48.546;9.896;2023-12-07T03:12:20;6.77;;;6.07;;
21114;SDS011;10715;48.546;9.896;2023-12-07T03:14:46;5.83;;;5.33;;
21114;SDS011;10715;48.546;9.896;2023-12-07T03:17:12;9.37;;;5.80;;
21114;SDS011;10715;48.546;9.896;2023-12-07T03:19:38;5.90;;;5.50;;
21114;SDS011;10715;48.546;9.896;2023-12-07T03:22:05;6.33;;;4.40;;
21114;SDS011;10715;48.546;9.896;2023-12-07T03:24:37;4.57;;;4.17;;
21114;SDS011;10715;48.546;9.896;2023-12-07T03:27:03;10.60;;;5.13;;
21114;SDS011;10715;48.546;9.896;2023-12-07T03:29:30;4.63;;;4.13;;
21114;SDS011;10715;48.546;9.896;2023-12-07T03:31:57;6.00;;;5.00;;
21114;SDS011;10715;48.546;9.896;2023-12-07T03:34:23;5.30;;;4.00;;
21114;SDS011;10715;48.546;9.896;2023-12-07T03:36:49;8.50;;;4.03;;
21114;SDS011;10715;48.546;9.896;2023-12-07T03:39:15;7.13;;;3.50;;
21114;SDS011;10715;48.546;9.896;2023-12-07T03:41:47;5.57;;;5.07;;
21114;SDS011;10715;48.546;9.896;2023-12-07T03:44:14;5.63;;;4.17;;
21114;SDS011;10715;48.546;9.896;2023-12-07T03:46:39;6.27;;;4.57;;
21114;SDS011;10715;48.546;9.896;2023-12-07T03:49:06;7.60;;;4.20;;
21114;SDS011;10715;48.546;9.896;2023-12-07T03:51:31;7.30;;;5.00;;
21114;SDS011;10715;48.546;9.896;2023-12-07T03:53:57;8.67;;;4.30;;
21114;SDS011;10715;48.546;9.896;2023-12-07T03:56:30;8.03;;;4.30;;
21114;SDS011;10715;48.546;9.896;2023-12-07T03:58:56;7.47;;;3.83;;
21114;SDS011;10715;48.546;9.896;2023-12-07T04:01:22;4.50;;;3.70;;
21114;SDS011;10715;48.546;9.896;2023-12-07T04:03:49;9.00;;;4.57;;
21114;SDS011;10715;48.546;9.896;2023-12-07T04:06:20;7.53;;;4.40;;
21114;SDS011;10715;48.546;9.896;2023-12-07T04:08:46;6.77;;;5.20;;
21114;SDS011;10715;48.546;9.896;2023-12-07T04:11:12;4.70;;;4.30;;
21114;SDS011;10715;48.546;9.896;2023-12-07T04:13:38;11.37;;;4.83;;
21114;SDS011;10715;48.546;9.896;2023-12-07T04:16:05;6.83;;;4.40;;
21114;SDS011;10715;48.546;9.896;2023-12-07T04:18:31;5.30;;;4.40;;
21114;SDS011;10715;48.546;9.896;2023-12-07T04:20:57;9.53;;;5.57;;
21114;SDS011;10715;48.546;9.896;2023-12-07T04:23:23;8.23;;;4.97;;
21114;SDS011;10715;48.546;9.896;2023-12-07T04:25:50;10.50;;;4.70;;
21114;SDS011;10715;48.546;9.896;2023-12-07T04:28:15;8.80;;;4.10;;
21114;SDS011;10715;48.546;9.896;2023-12-07T04:30:41;7.23;;;4.90;;
21114;SDS011;10715;48.546;9.896;2023-12-07T04:33:07;8.03;;;4.47;;
21114;SDS011;10715;48.546;9.896;2023-12-07T04:35:34;10.87;;;5.80;;
21114;SDS011;10715;48.546;9.896;2023-12-07T04:38:00;7.80;;;5.50;;
21114;SDS011;10715;48.546;9.896;2023-12-07T04:40:26;11.37;;;6.97;;
21114;SDS011;10715;48.546;9.896;2023-12-07T04:42:52;18.80;;;8.30;;
21114;SDS011;10715;48.546;9.896;2023-12-07T04:45:17;14.83;;;8.83;;
21114;SDS011;10715;48.546;9.896;2023-12-07T04:47:43;14.93;;;8.17;;
21114;SDS011;10715;48.546;9.896;2023-12-07T04:50:11;14.73;;;9.17;;
21114;SDS011;10715;48.546;9.896;2023-12-07T04:52:36;12.40;;;8.93;;
21114;SDS011;10715;48.546;9.896;2023-12-07T04:55:02;15.33;;;8.50;;
21114;SDS011;10715;48.546;9.896;2023-12-07T04:57:28;10.43;;;6.97;;
21114;SDS011;10715;48.546;9.896;2023-12-07T04:59:54;14.33;;;8.00;;
21114;SDS011;10715;48.546;9.896;2023-12-07T05:02:20;9.70;;;6.90;;
21114;SDS011;10715;48.546;9.896;2023-12-07T05:04:46;13.73;;;7.50;;
21114;SDS011;10715;48.546;9.896;2023-12-07T05:07:12;13.13;;;7.20;;
21114;SDS011;10715;48.546;9.896;2023-12-07T05:09:39;11.97;;;6.77;;
21114;SDS011;10715;48.546;9.896;2023-12-07T05:12:05;11.87;;;6.03;;
21114;SDS011;10715;48.546;9.896;2023-12-07T05:14:31;11.30;;;7.40;;
21114;SDS011;10715;48.546;9.896;2023-12-07T05:16:57;14.70;;;7.17;;
21114;SDS011;10715;48.546;9.896;2023-12-07T05:19:23;8.87;;;8.00;;
21114;SDS011;10715;48.546;9.896;2023-12-07T05:21:53;10.73;;;8.90;;
21114;SDS011;10715;48.546;9.896;2023-12-07T05:24:18;10.93;;;8.10;;
21114;SDS011;10715;48.546;9.896;2023-12-07T05:26:45;17.33;;;11.90;;
21114;SDS011;10715;48.546;9.896;2023-12-07T05:29:11;15.13;;;10.63;;
21114;SDS011;10715;48.546;9.896;2023-12-07T05:31:38;15.80;;;10.47;;
21114;SDS011;10715;48.546;9.896;2023-12-07T05:34:04;18.47;;;9.40;;
21114;SDS011;10715;48.546;9.896;2023-12-07T05:36:30;9.80;;;7.77;;
21114;SDS011;10715;48.546;9.896;2023-12-07T05:38:56;10.63;;;8.97;;
21114;SDS011;10715;48.546;9.896;2023-12-07T05:41:22;11.80;;;6.40;;
21114;SDS011;10715;48.546;9.896;2023-12-07T05:43:48;11.20;;;6.87;;
21114;SDS011;10715;48.546;9.896;2023-12-07T05:46:14;9.30;;;7.97;;
21114;SDS011;10715;48.546;9.896;2023-12-07T05:48:40;13.87;;;7.10;;
21114;SDS011;10715;48.546;9.896;2023-12-07T05:51:11;8.53;;;5.83;;
21114;SDS011;10715;48.546;9.896;2023-12-07T05:53:38;6.60;;;6.00;;
21114;SDS011;10715;48.546;9.896;2023-12-07T05:56:04;12.23;;;7.40;;
21114;SDS011;10715;48.546;9.896;2023-12-07T05:58:30;9.13;;;7.10;;
21114;SDS011;10715;48.546;9.896;2023-12-07T06:00:56;10.70;;;7.83;;
21114;SDS011;10715;48.546;9.896;2023-12-07T06:03:23;10.47;;;7.37;;
21114;SDS011;10715;48.546;9.896;2023-12-07T06:05:50;8.17;;;7.43;;
21114;SDS011;10715;48.546;9.896;2023-12-07T06:08:16;10.50;;;9.10;;
21114;SDS011;10715;48.546;9.896;2023-12-07T06:10:42;9.60;;;6.90;;
21114;SDS011;10715;48.546;9.896;2023-12-07T06:13:08;11.57;;;8.27;;
21114;SDS011;10715;48.546;9.896;2023-12-07T06:15:33;11.47;;;7.50;;
21114;SDS011;10715;48.546;9.896;2023-12-07T06:17:59;7.83;;;6.10;;
21114;SDS011;10715;48.546;9.896;2023-12-07T06:20:25;17.03;;;9.47;;
21114;SDS011;10715;48.546;9.896;2023-12-07T06:22:51;13.60;;;8.13;;
21114;SDS011;10715;48.546;9.896;2023-12-07T06:25:17;9.30;;;5.50;;
21114;SDS011;10715;48.546;9.896;2023-12-07T06:27:43;6.47;;;5.03;;
21114;SDS011;10715;48.546;9.896;2023-12-07T06:30:09;18.77;;;10.70;;
21114;SDS011;10715;48.546;9.896;2023-12-07T06:32:36;12.40;;;8.50;;
21114;SDS011;10715;48.546;9.896;2023-12-07T06:35:02;10.13;;;8.80;;
21114;SDS011;10715;48.546;9.896;2023-12-07T06:37:29;6.90;;;6.03;;
21114;SDS011;10715;48.546;9.896;2023-12-07T06:39:55;8.20;;;5.03;;
21114;SDS011;10715;48.546;9.896;2023-12-07T06:42:21;7.83;;;4.80;;
21114;SDS011;10715;48.546;9.896;2023-12-07T06:44:47;6.73;;;5.10;;
21114;SDS011;10715;48.546;9.896;2023-12-07T06:47:16;12.83;;;6.73;;
21114;SDS011;10715;48.546;9.896;2023-12-07T06:49:43;8.53;;;4.47;;
21114;SDS011;10715;48.546;9.896;2023-12-07T06:52:10;7.53;;;5.93;;
21114;SDS011;10715;48.546;9.896;2023-12-07T06:54:37;9.17;;;5.90;;
21114;SDS011;10715;48.546;9.896;2023-12-07T06:57:04;8.90;;;7.07;;
21114;SDS011;10715;48.546;9.896;2023-12-07T06:59:31;9.90;;;5.90;;
21114;SDS011;10715;48.546;9.896;2023-12-07T07:01:57;6.43;;;4.77;;
21114;SDS011;10715;48.546;9.896;2023-12-07T07:04:23;7.27;;;4.97;;
21114;SDS011;10715;48.546;9.896;2023-12-07T07:06:49;10.00;;;5.53;;
21114;SDS011;10715;48.546;9.896;2023-12-07T07:09:16;6.00;;;4.00;;
21114;SDS011;10715;48.546;9.896;2023-12-07T07:11:42;6.13;;;4.63;;
21114;SDS011;10715;48.546;9.896;2023-12-07T07:14:12;7.27;;;4.90;;
21114;SDS011;10715;48.546;9.896;2023-12-07T07:16:38;8.37;;;5.43;;
21114;SDS011;10715;48.546;9.896;2023-12-07T07:19:04;6.27;;;5.07;;
21114;SDS011;10715;48.546;9.896;2023-12-07T07:21:29;6.33;;;4.90;;
21114;SDS011;10715;48.546;9.896;2023-12-07T07:23:55;5.90;;;4.30;;
21114;SDS011;10715;48.546;9.896;2023-12-07T07:26:21;6.43;;;5.27;;
21114;SDS011;10715;48.546;9.896;2023-12-07T07:28:47;4.73;;;4.00;;
21114;SDS011;10715;48.546;9.896;2023-12-07T07:31:13;6.63;;;4.37;;
21114;SDS011;10715;48.546;9.896;2023-12-07T07:33:38;9.20;;;5.43;;
21114;SDS011;10715;48.546;9.896;2023-12-07T07:36:04;8.33;;;5.13;;
21114;SDS011;10715;48.546;9.896;2023-12-07T07:38:30;6.10;;;3.47;;
21114;SDS011;10715;48.546;9.896;2023-12-07T07:40:56;6.37;;;3.60;;
21114;SDS011;10715;48.546;9.896;2023-12-07T07:43:21;6.10;;;4.80;;
21114;SDS011;10715;48.546;9.896;2023-12-07T07:45:47;6.00;;;5.50;;
21114;SDS011;10715;48.546;9.896;2023-12-07T07:48:13;8.37;;;4.70;;
21114;SDS011;10715;48.546;9.896;2023-12-07T07:50:38;10.50;;;7.20;;
21114;SDS011;10715;48.546;9.896;2023-12-07T07:53:04;8.67;;;6.37;;
21114;SDS011;10715;48.546;9.896;2023-12-07T07:55:30;5.00;;;4.00;;
21114;SDS011;10715;48.546;9.896;2023-12-07T07:57:56;8.30;;;4.47;;
21114;SDS011;10715;48.546;9.896;2023-12-07T08:00:21;3.50;;;3.20;;
21114;SDS011;10715;48.546;9.896;2023-12-07T08:02:51;4.93;;;4.23;;
21114;SDS011;10715;48.546;9.896;2023-12-07T08:05:16;7.50;;;4.60;;
21114;SDS011;10715;48.546;9.896;2023-12-07T08:07:42;13.10;;;4.30;;
21114;SDS011;10715;48.546;9.896;2023-12-07T08:10:08;6.47;;;4.63;;
21114;SDS011;10715;48.546;9.896;2023-12-07T08:12:34;6.40;;;5.80;;
21114;SDS011;10715;48.546;9.896;2023-12-07T08:15:00;12.77;;;4.33;;
21114;SDS011;10715;48.546;9.896;2023-12-07T08:17:26;6.37;;;4.23;;
21114;SDS011;10715;48.546;9.896;2023-12-07T08:19:52;7.23;;;3.10;;
21114;SDS011;10715;48.546;9.896;2023-12-07T08:22:18;9.10;;;5.50;;
21114;SDS011;10715;48.546;9.896;2023-12-07T08:24:45;8.87;;;4.47;;
21114;SDS011;10715;48.546;9.896;2023-12-07T08:27:11;6.03;;;4.00;;
21114;SDS011;10715;48.546;9.896;2023-12-07T08:29:36;4.90;;;4.20;;
21114;SDS011;10715;48.546;9.896;2023-12-07T08:32:02;4.80;;;4.30;;
21114;SDS011;10715;48.546;9.896;2023-12-07T08:34:28;6.10;;;4.17;;
21114;SDS011;10715;48.546;9.896;2023-12-07T08:36:54;4.37;;;3.70;;
21114;SDS011;10715;48.546;9.896;2023-12-07T08:39:20;8.80;;;4.47;;
21114;SDS011;10715;48.546;9.896;2023-12-07T08:41:46;7.07;;;4.23;;
21114;SDS011;10715;48.546;9.896;2023-12-07T08:44:11;11.27;;;4.77;;
21114;SDS011;10715;48.546;9.896;2023-12-07T08:46:37;8.87;;;5.13;;
21114;SDS011;10715;48.546;9.896;2023-12-07T08:49:03;7.87;;;4.80;;
21114;SDS011;10715;48.546;9.896;2023-12-07T08:51:29;6.70;;;4.03;;
21114;SDS011;10715;48.546;9.896;2023-12-07T08:53:55;6.20;;;5.33;;
21114;SDS011;10715;48.546;9.896;2023-12-07T08:56:21;11.03;;;6.33;;
21114;SDS011;10715;48.546;9.896;2023-12-07T08:58:47;13.03;;;6.97;;
21114;SDS011;10715;48.546;9.896;2023-12-07T09:01:13;9.40;;;5.60;;
21114;SDS011;10715;48.546;9.896;2023-12-07T09:03:38;5.37;;;4.87;;
21114;SDS011;10715;48.546;9.896;2023-12-07T09:06:06;6.07;;;4.23;;
21114;SDS011;10715;48.546;9.896;2023-12-07T09:08:33;5.00;;;4.00;;
21114;SDS011;10715;48.546;9.896;2023-12-07T09:10:59;5.67;;;3.87;;
21114;SDS011;10715;48.546;9.896;2023-12-07T09:13:25;7.30;;;4.67;;
21114;SDS011;10715;48.546;9.896;2023-12-07T09:15:50;4.90;;;4.50;;
21114;SDS011;10715;48.546;9.896;2023-12-07T09:18:16;5.47;;;4.90;;
21114;SDS011;10715;48.546;9.896;2023-12-07T09:20:42;5.77;;;4.67;;
21114;SDS011;10715;48.546;9.896;2023-12-07T09:23:14;7.80;;;5.13;;
21114;SDS011;10715;48.546;9.896;2023-12-07T09:25:40;4.23;;;3.80;;
21114;SDS011;10715;48.546;9.896;2023-12-07T09:28:07;5.97;;;3.80;;
21114;SDS011;10715;48.546;9.896;2023-12-07T09:30:33;5.97;;;4.13;;
21114;SDS011;10715;48.546;9.896;2023-12-07T09:33:00;7.17;;;5.03;;
21114;SDS011;10715;48.546;9.896;2023-12-07T09:35:28;9.70;;;4.90;;
21114;SDS011;10715;48.546;9.896;2023-12-07T09:37:54;6.90;;;6.20;;
21114;SDS011;10715;48.546;9.896;2023-12-07T09:40:20;7.53;;;5.60;;
21114;SDS011;10715;48.546;9.896;2023-12-07T09:42:47;5.13;;;4.47;;
21114;SDS011;10715;48.546;9.896;2023-12-07T09:45:14;8.30;;;6.20;;
21114;SDS011;10715;48.546;9.896;2023-12-07T09:47:43;6.27;;;4.73;;
21114;SDS011;10715;48.546;9.896;2023-12-07T09:50:16;8.67;;;5.97;;
21114;SDS011;10715;48.546;9.896;2023-12-07T09:52:43;15.87;;;6.30;;
21114;SDS011;10715;48.546;9.896;2023-12-07T09:55:09;9.63;;;7.47;;
21114;SDS011;10715;48.546;9.896;2023-12-07T09:57:39;15.10;;;8.27;;
21114;SDS011;10715;48.546;9.896;2023-12-07T10:00:05;10.27;;;7.10;;
21114;SDS011;10715;48.546;9.896;2023-12-07T10:02:38;17.37;;;9.57;;
21114;SDS011;10715;48.546;9.896;2023-12-07T10:05:07;12.77;;;9.30;;
21114;SDS011;10715;48.546;9.896;2023-12-07T10:07:46;14.33;;;8.83;;
21114;SDS011;10715;48.546;9.896;2023-12-07T10:10:13;16.53;;;8.83;;
21114;SDS011;10715;48.546;9.896;2023-12-07T10:15:13;17.50;;;10.47;;
21114;SDS011;10715;48.546;9.896;2023-12-07T10:17:47;13.97;;;8.40;;
21114;SDS011;10715;48.546;9.896;2023-12-07T10:20:23;17.10;;;9.27;;
21114;SDS011;10715;48.546;9.896;2023-12-07T10:23:03;12.00;;;7.57;;
21114;SDS011;10715;48.546;9.896;2023-12-07T10:25:30;14.20;;;7.33;;
21114;SDS011;10715;48.546;9.896;2023-12-07T10:27:57;13.60;;;6.93;;
21114;SDS011;10715;48.546;9.896;2023-12-07T10:30:23;10.67;;;6.00;;
21114;SDS011;10715;48.546;9.896;2023-12-07T10:32:51;11.03;;;6.33;;
21114;SDS011;10715;48.546;9.896;2023-12-07T10:35:17;6.87;;;5.80;;
21114;SDS011;10715;48.546;9.896;2023-12-07T10:37:44;11.40;;;5.40;;
21114;SDS011;10715;48.546;9.896;2023-12-07T10:40:12;6.23;;;4.57;;
21114;SDS011;10715;48.546;9.896;2023-12-07T10:42:37;7.93;;;4.30;;
21114;SDS011;10715;48.546;9.896;2023-12-07T10:45:07;6.90;;;4.60;;
21114;SDS011;10715;48.546;9.896;2023-12-07T10:47:35;10.10;;;5.70;;
21114;SDS011;10715;48.546;9.896;2023-12-07T10:50:03;7.17;;;5.20;;
21114;SDS011;10715;48.546;9.896;2023-12-07T10:52:36;9.50;;;5.43;;
21114;SDS011;10715;48.546;9.896;2023-12-07T10:55:09;8.30;;;5.10;;
21114;SDS011;10715;48.546;9.896;2023-12-07T10:57:47;7.73;;;4.83;;
21114;SDS011;10715;48.546;9.896;2023-12-07T11:00:14;7.67;;;4.77;;
21114;SDS011;10715;48.546;9.896;2023-12-07T11:02:40;13.53;;;6.60;;
21114;SDS011;10715;48.546;9.896;2023-12-07T11:05:08;5.80;;;3.87;;
21114;SDS011;10715;48.546;9.896;2023-12-07T11:07:47;4.10;;;3.70;;
21114;SDS011;10715;48.546;9.896;2023-12-07T11:13:32;3.17;;;2.97;;
21114;SDS011;10715;48.546;9.896;2023-12-07T11:16:01;3.27;;;2.70;;
21114;SDS011;10715;48.546;9.896;2023-12-07T11:18:28;2.63;;;2.43;;
21114;SDS011;10715;48.546;9.896;2023-12-07T11:20:54;4.50;;;3.67;;
21114;SDS011;10715;48.546;9.896;2023-12-07T11:23:21;4.73;;;3.20;;
21114;SDS011;10715;48.546;9.896;2023-12-07T11:25:47;3.60;;;2.90;;
21114;SDS011;10715;48.546;9.896;2023-12-07T11:28:15;4.20;;;2.37;;
21114;SDS011;10715;48.546;9.896;2023-12-07T11:30:42;3.20;;;2.77;;
21114;SDS011;10715;48.546;9.896;2023-12-07T11:33:09;3.90;;;3.50;;
21114;SDS011;10715;48.546;9.896;2023-12-07T11:38:27;5.57;;;1.90;;
21114;SDS011;10715;48.546;9.896;2023-12-07T11:40:53;9.03;;;3.63;;
21114;SDS011;10715;48.546;9.896;2023-12-07T11:46:12;3.10;;;2.80;;
21114;SDS011;10715;48.546;9.896;2023-12-07T11:48:39;5.13;;;3.70;;
21114;SDS011;10715;48.546;9.896;2023-12-07T11:51:05;5.33;;;3.87;;
21114;SDS011;10715;48.546;9.896;2023-12-07T11:53:36;9.20;;;4.53;;
21114;SDS011;10715;48.546;9.896;2023-12-07T11:56:06;4.37;;;3.20;;
21114;SDS011;10715;48.546;9.896;2023-12-07T11:58:34;4.23;;;3.67;;
21114;SDS011;10715;48.546;9.896;2023-12-07T12:01:01;10.37;;;4.37;;
21114;SDS011;10715;48.546;9.896;2023-12-07T12:03:28;11.30;;;4.57;;
21114;SDS011;10715;48.546;9.896;2023-12-07T12:05:56;4.63;;;4.23;;
21114;SDS011;10715;48.546;9.896;2023-12-07T12:08:22;3.77;;;3.40;;
21114;SDS011;10715;48.546;9.896;2023-12-07T12:10:51;3.83;;;3.27;;
21114;SDS011;10715;48.546;9.896;2023-12-07T12:13:18;4.60;;;3.73;;
21114;SDS011;10715;48.546;9.896;2023-12-07T12:15:45;3.97;;;3.23;;
21114;SDS011;10715;48.546;9.896;2023-12-07T12:18:13;4.10;;;2.87;;
21114;SDS011;10715;48.546;9.896;2023-12-07T12:25:49;4.17;;;3.77;;
21114;SDS011;10715;48.546;9.896;2023-12-07T12:30:51;5.03;;;4.63;;
21114;SDS011;10715;48.546;9.896;2023-12-07T12:36:25;2.90;;;2.33;;
21114;SDS011;10715;48.546;9.896;2023-12-07T12:38:56;4.90;;;3.70;;
21114;SDS011;10715;48.546;9.896;2023-12-07T12:41:22;8.70;;;3.47;;
21114;SDS011;10715;48.546;9.896;2023-12-07T12:43:48;10.43;;;2.30;;
21114;SDS011;10715;48.546;9.896;2023-12-07T12:46:16;5.67;;;2.73;;
21114;SDS011;10715;48.546;9.896;2023-12-07T12:48:56;4.10;;;2.33;;
21114;SDS011;10715;48.546;9.896;2023-12-07T12:51:24;2.60;;;1.57;;
21114;SDS011;10715;48.546;9.896;2023-12-07T12:53:51;12.17;;;2.37;;
21114;SDS011;10715;48.546;9.896;2023-12-07T13:11:27;7.30;;;3.27;;
21114;SDS011;10715;48.546;9.896;2023-12-07T13:13:53;5.17;;;3.40;;
21114;SDS011;10715;48.546;9.896;2023-12-07T13:16:18;4.33;;;3.60;;
21114;SDS011;10715;48.546;9.896;2023-12-07T13:18:46;5.93;;;3.73;;
21114;SDS011;10715;48.546;9.896;2023-12-07T13:21:11;7.40;;;3.23;;
21114;SDS011;10715;48.546;9.896;2023-12-07T13:23:39;6.57;;;3.20;;
21114;SDS011;10715;48.546;9.896;2023-12-07T13:26:05;7.37;;;4.40;;
21114;SDS011;10715;48.546;9.896;2023-12-07T13:28:32;5.63;;;4.00;;
21114;SDS011;10715;48.546;9.896;2023-12-07T13:30:59;4.80;;;3.00;;
21114;SDS011;10715;48.546;9.896;2023-12-07T13:33:25;4.33;;;3.70;;
21114;SDS011;10715;48.546;9.896;2023-12-07T13:35:51;7.10;;;4.77;;
21114;SDS011;10715;48.546;9.896;2023-12-07T13:38:19;8.87;;;5.70;;
21114;SDS011;10715;48.546;9.896;2023-12-07T13:40:46;7.80;;;4.03;;
21114;SDS011;10715;48.546;9.896;2023-12-07T13:43:11;5.17;;;4.67;;
21114;SDS011;10715;48.546;9.896;2023-12-07T13:45:37;5.60;;;4.90;;
21114;SDS011;10715;48.546;9.896;2023-12-07T13:48:03;5.30;;;4.80;;
21114;SDS011;10715;48.546;9.896;2023-12-07T13:50:29;7.83;;;4.90;;
21114;SDS011;10715;48.546;9.896;2023-12-07T13:52:56;7.33;;;5.40;;
21114;SDS011;10715;48.546;9.896;2023-12-07T13:55:21;10.90;;;6.57;;
21114;SDS011;10715;48.546;9.896;2023-12-07T13:57:49;10.10;;;6.50;;
21114;SDS011;10715;48.546;9.896;2023-12-07T14:00:18;8.80;;;7.10;;
21114;SDS011;10715;48.546;9.896;2023-12-07T14:02:45;8.33;;;7.27;;
21114;SDS011;10715;48.546;9.896;2023-12-07T14:05:10;9.00;;;6.23;;
21114;SDS011;10715;48.546;9.896;2023-12-07T14:07:36;11.67;;;7.27;;
21114;SDS011;10715;48.546;9.896;2023-12-07T14:10:02;14.83;;;8.50;;
21114;SDS011;10715;48.546;9.896;2023-12-07T14:12:28;12.50;;;8.30;;
21114;SDS011;10715;48.546;9.896;2023-12-07T14:14:54;12.30;;;7.67;;
21114;SDS011;10715;48.546;9.896;2023-12-07T14:17:23;20.40;;;10.00;;
21114;SDS011;10715;48.546;9.896;2023-12-07T14:19:49;12.97;;;8.20;;
21114;SDS011;10715;48.546;9.896;2023-12-07T14:22:15;16.00;;;8.40;;
21114;SDS011;10715;48.546;9.896;2023-12-07T14:24:40;11.20;;;7.97;;
21114;SDS011;10715;48.546;9.896;2023-12-07T14:27:06;9.60;;;6.73;;
21114;SDS011;10715;48.546;9.896;2023-12-07T14:29:33;17.27;;;7.27;;
21114;SDS011;10715;48.546;9.896;2023-12-07T14:31:59;12.27;;;6.50;;
21114;SDS011;10715;48.546;9.896;2023-12-07T14:34:25;16.40;;;7.60;;
21114;SDS011;10715;48.546;9.896;2023-12-07T14:36:52;17.20;;;9.37;;
21114;SDS011;10715;48.546;9.896;2023-12-07T14:39:18;17.63;;;9.80;;
21114;SDS011;10715;48.546;9.896;2023-12-07T14:41:45;15.83;;;9.07;;
21114;SDS011;10715;48.546;9.896;2023-12-07T14:44:15;36.73;;;25.60;;
21114;SDS011;10715;48.546;9.896;2023-12-07T14:46:45;15.87;;;11.07;;
21114;SDS011;10715;48.546;9.896;2023-12-07T14:49:12;48.63;;;22.73;;
21114;SDS011;10715;48.546;9.896;2023-12-07T14:51:38;14.03;;;8.17;;
21114;SDS011;10715;48.546;9.896;2023-12-07T14:54:04;12.93;;;7.60;;
21114;SDS011;10715;48.546;9.896;2023-12-07T14:56:30;19.20;;;9.90;;
21114;SDS011;10715;48.546;9.896;2023-12-07T14:58:58;10.63;;;6.07;;
21114;SDS011;10715;48.546;9.896;2023-12-07T15:01:25;10.73;;;7.43;;
21114;SDS011;10715;48.546;9.896;2023-12-07T15:03:51;10.23;;;6.73;;
21114;SDS011;10715;48.546;9.896;2023-12-07T15:06:16;10.87;;;7.63;;
21114;SDS011;10715;48.546;9.896;2023-12-07T15:08:43;13.67;;;8.70;;
21114;SDS011;10715;48.546;9.896;2023-12-07T15:11:09;13.87;;;7.53;;
21114;SDS011;10715;48.546;9.896;2023-12-07T15:13:35;11.60;;;7.73;;
21114;SDS011;10715;48.546;9.896;2023-12-07T15:16:01;12.90;;;7.57;;
21114;SDS011;10715;48.546;9.896;2023-12-07T15:18:29;9.87;;;7.10;;